Joao Paulo, Brazil
Current Conditions -  °F | °C
As of 6:00 PM on Wednesday 26 Nov 2014 (Local Time) from SBCY Reporting Station
Broken Clouds Broken Clouds  
Wind Chill: 86°   Ceiling: 1700
Heat Index: 93°   Visibility: 6mi
Dew Point: 73°   Wind: 5mph
Humidity: 66%   Direction: 150°SSE
Pressure: 29.77"   Gusts: NA
Location:  14.57°S, 56.72°W
Report Text: SBCY 262100Z 15004KT 9999 BKN017 FEW025TCU BKN100 30/23 Q1008
Loading
Personal Weather Stations






























Interactive Weather Map New forecast layout! Learn more

10-Day Weather Forecast

Advertisements
Track Severe Weather on mobile